Date,TemperatureHighF,TemperatureAvgF,TemperatureLowF,DewpointHighF,DewpointAvgF,DewpointLowF,HumidityHigh,HumidityAvg,HumidityLow,PressureMaxIn,PressureMinIn,WindSpeedMaxMPH,WindSpeedAvgMPH,GustSpeedMaxMPH,PrecipitationSumIn
2013-2-1,17.0,11.9,7.0,10.0,5.8,1.0,83,76,70,30.34,30.04,7,4,0,0.00
2013-2-2,29.0,23.3,17.0,26.0,19.8,11.0,92,87,78,30.21,29.92,4,2,0,0.00
2013-2-3,25.0,19.2,13.0,22.0,15.8,10.0,91,86,81,30.03,29.90,7,2,0,0.00
2013-2-4,38.0,28.7,19.0,34.0,24.8,16.0,95,85,71,30.03,29.72,4,1,0,0.00
2013-2-5,37.0,32.0,25.0,34.0,28.2,22.0,91,86,79,29.95,29.77,4,1,0,0.00
2013-2-6,36.0,31.7,30.0,32.0,27.3,25.0,89,84,75,30.20,29.95,2,0,0,0.00
2013-2-7,53.0,41.5,31.0,46.0,36.0,28.0,95,81,67,30.12,29.73,2,0,0,0.00
2013-2-8,46.0,35.1,29.0,45.0,31.6,25.0,96,87,75,30.28,29.75,5,2,0,0.00
2013-2-9,41.0,32.5,23.0,30.0,26.3,20.0,91,78,64,30.35,30.11,2,1,0,0.00
2013-2-10,51.0,42.6,33.0,49.0,37.0,26.0,96,81,70,30.11,29.66,6,2,0,0.00
2013-2-11,52.0,42.4,35.0,50.0,35.3,29.0,97,76,65,29.98,29.65,11,6,0,0.00
2013-2-12,46.0,35.4,27.0,34.0,29.3,24.0,91,79,57,30.08,29.88,3,1,0,0.00
2013-2-13,45.0,34.9,29.0,32.0,28.6,27.0,91,79,58,29.87,29.72,4,1,0,0.00
2013-2-14,50.0,41.1,35.0,41.0,35.5,31.0,94,81,68,29.94,29.74,8,3,0,0.00
2013-2-15,37.0,32.5,25.0,32.0,27.2,20.0,90,81,66,30.10,29.92,4,1,0,0.00
2013-2-16,27.0,23.6,21.0,21.0,16.8,13.0,86,75,62,30.08,30.02,6,2,0,0.00
2013-2-17,26.0,19.2,14.0,18.0,12.5,10.0,85,75,58,30.17,30.06,1,0,0,0.00
2013-2-18,59.0,40.9,27.0,46.0,31.1,16.0,92,69,51,30.08,29.54,11,4,0,0.00
2013-2-19,47.0,29.0,23.0,45.0,23.7,15.0,94,80,71,30.06,29.53,11,8,0,0.00
2013-2-20,28.0,21.7,14.0,18.0,13.9,8.0,79,72,61,30.25,30.06,8,2,0,0.00
2013-2-21,32.0,25.9,19.0,27.0,21.1,14.0,93,82,71,30.27,29.93,8,3,0,0.00
2013-2-22,37.0,34.0,29.0,35.0,32.1,27.0,98,93,85,29.96,29.78,5,2,0,0.00
2013-2-23,39.0,31.5,25.0,30.0,25.5,21.0,88,79,64,29.94,29.85,4,2,0,0.00
2013-2-24,42.0,32.1,23.0,31.0,25.9,20.0,91,78,63,30.07,29.91,3,0,0,0.00
2013-2-25,46.0,36.1,27.0,34.0,28.4,23.0,86,74,60,30.09,29.80,7,2,0,0.00
2013-2-26,43.0,39.2,34.0,42.0,36.1,29.0,98,90,70,29.80,29.31,9,4,0,0.00
2013-2-27,42.0,35.6,32.0,41.0,34.2,31.0,97,95,90,29.64,29.41,8,4,0,0.00
2013-2-28,38.0,34.6,32.0,36.0,32.7,30.0,97,93,87,29.92,29.63,6,2,0,0.00